createdAt,value
2018-12-17T00:01:11.875Z,46.42
2018-12-17T00:03:37.847Z,46.79
2018-12-17T00:06:03.809Z,45.47
2018-12-17T00:08:32.082Z,46.53
2018-12-17T00:10:57.733Z,45.69
2018-12-17T00:13:23.758Z,44.08
2018-12-17T00:15:49.754Z,45.46
2018-12-17T00:18:15.723Z,45.60
2018-12-17T00:20:41.672Z,44.97
2018-12-17T00:23:07.647Z,46.13
2018-12-17T00:25:33.609Z,46.21
2018-12-17T00:27:59.580Z,46.37
2018-12-17T00:30:25.512Z,46.18
2018-12-17T00:32:51.465Z,44.99
2018-12-17T00:35:17.408Z,45.61
2018-12-17T00:37:43.360Z,46.47
2018-12-17T00:40:09.307Z,46.51
2018-12-17T00:42:35.247Z,45.87
2018-12-17T00:45:01.180Z,46.34
2018-12-17T00:47:27.138Z,46.63
2018-12-17T00:49:53.084Z,46.19
2018-12-17T00:52:19.012Z,46.47
2018-12-17T00:54:44.950Z,46.89
2018-12-17T00:57:10.890Z,47.58
2018-12-17T00:59:36.825Z,46.39
2018-12-17T01:02:02.759Z,46.60
2018-12-17T01:04:28.735Z,46.03
2018-12-17T01:06:54.671Z,45.98
2018-12-17T01:09:20.647Z,45.67
2018-12-17T01:11:46.582Z,45.28
2018-12-17T01:14:12.558Z,45.30
2018-12-17T01:16:38.517Z,46.12
2018-12-17T01:19:04.501Z,46.35
2018-12-17T01:21:30.447Z,45.83
2018-12-17T01:23:56.522Z,46.57
2018-12-17T01:26:22.515Z,47.17
2018-12-17T01:28:48.466Z,46.30
2018-12-17T01:31:14.446Z,46.17
2018-12-17T01:33:40.397Z,46.80
2018-12-17T01:36:06.344Z,46.45
2018-12-17T01:38:32.312Z,47.04
2018-12-17T01:40:58.269Z,47.94
2018-12-17T01:43:24.223Z,48.68
2018-12-17T01:45:50.196Z,48.66
2018-12-17T01:48:16.165Z,48.50
2018-12-17T01:50:42.108Z,48.22
2018-12-17T01:53:08.044Z,48.27
2018-12-17T01:55:33.983Z,48.80
2018-12-17T01:57:59.948Z,48.17
2018-12-17T02:00:28.287Z,48.51
2018-12-17T02:02:54.276Z,47.73
2018-12-17T02:05:20.240Z,47.92
2018-12-17T02:07:46.180Z,48.79
2018-12-17T02:10:12.132Z,48.98
2018-12-17T02:12:38.087Z,48.95
2018-12-17T02:15:04.036Z,48.89
2018-12-17T02:17:29.998Z,49.69
2018-12-17T02:19:56.092Z,48.95
2018-12-17T02:22:22.155Z,49.14
2018-12-17T02:24:48.096Z,49.64
2018-12-17T02:27:14.052Z,49.02
2018-12-17T02:29:40.017Z,49.09
2018-12-17T02:32:05.959Z,48.86
2018-12-17T02:34:31.937Z,49.47
2018-12-17T02:36:57.879Z,49.49
2018-12-17T02:39:23.825Z,48.60
2018-12-17T02:41:49.787Z,49.50
2018-12-17T02:44:15.722Z,50.12
2018-12-17T02:46:41.684Z,49.75
2018-12-17T02:49:07.621Z,49.81
2018-12-17T02:51:33.584Z,49.28
2018-12-17T02:53:59.841Z,49.94
2018-12-17T02:56:25.815Z,49.65
2018-12-17T02:58:51.769Z,49.48
2018-12-17T03:01:17.837Z,49.52
2018-12-17T03:03:43.819Z,48.98
2018-12-17T03:06:09.842Z,49.16
2018-12-17T03:08:35.796Z,48.98
2018-12-17T03:11:01.738Z,49.73
2018-12-17T03:13:27.677Z,49.47
2018-12-17T03:15:53.638Z,49.43
2018-12-17T03:18:19.579Z,50.20
2018-12-17T03:20:45.568Z,49.39
2018-12-17T03:23:11.513Z,48.65
2018-12-17T03:25:37.454Z,48.41
2018-12-17T03:28:03.446Z,48.28
2018-12-17T03:30:29.408Z,49.18
2018-12-17T03:32:56.408Z,49.99
2018-12-17T03:35:23.451Z,50.41
2018-12-17T03:37:49.709Z,50.12
2018-12-17T03:40:15.664Z,49.91
2018-12-17T03:42:41.619Z,50.41
2018-12-17T03:45:07.573Z,50.68
2018-12-17T03:47:33.511Z,50.24
2018-12-17T03:49:59.478Z,50.55
2018-12-17T03:52:25.416Z,51.23
2018-12-17T03:54:52.647Z,51.16
2018-12-17T03:57:18.865Z,51.25
2018-12-17T03:59:44.796Z,51.33
2018-12-17T04:02:10.752Z,51.80
2018-12-17T04:04:36.727Z,50.73
2018-12-17T04:07:02.668Z,49.99
2018-12-17T04:09:28.643Z,50.75
2018-12-17T04:11:54.604Z,50.61
2018-12-17T04:14:20.577Z,50.75
2018-12-17T04:16:46.531Z,51.28
2018-12-17T04:19:12.485Z,50.80
2018-12-17T04:21:38.451Z,51.50
2018-12-17T04:24:04.538Z,51.19
2018-12-17T04:26:30.493Z,51.38
2018-12-17T04:28:56.453Z,51.74
2018-12-17T04:31:22.411Z,51.64
2018-12-17T04:33:48.444Z,50.96
2018-12-17T04:36:14.381Z,51.39
2018-12-17T04:38:40.450Z,51.74
2018-12-17T04:41:06.393Z,51.64
2018-12-17T04:43:37.134Z,51.19
2018-12-17T04:46:05.097Z,51.08
2018-12-17T04:48:31.115Z,51.48
2018-12-17T04:50:57.074Z,51.78
2018-12-17T04:53:23.039Z,51.39
2018-12-17T04:55:48.996Z,50.92
2018-12-17T04:58:14.959Z,51.44
2018-12-17T05:00:40.932Z,51.77
2018-12-17T05:03:06.891Z,51.65
2018-12-17T05:05:32.958Z,51.58
2018-12-17T05:07:58.951Z,51.26
2018-12-17T05:10:24.968Z,51.43
2018-12-17T05:12:50.946Z,50.70
2018-12-17T05:15:16.882Z,51.17
2018-12-17T05:17:45.013Z,51.58
2018-12-17T05:20:12.294Z,51.33
2018-12-17T05:22:38.276Z,51.53
2018-12-17T05:25:04.244Z,51.34
2018-12-17T05:27:30.223Z,51.35
2018-12-17T05:29:56.190Z,52.03
2018-12-17T05:32:22.207Z,51.49
2018-12-17T05:34:48.142Z,51.40
2018-12-17T05:37:14.102Z,51.67
2018-12-17T05:39:40.054Z,51.79
2018-12-17T05:42:06.016Z,51.53
2018-12-17T05:44:32.004Z,51.84
2018-12-17T05:46:57.960Z,52.54
2018-12-17T05:49:23.912Z,52.47
2018-12-17T05:51:49.879Z,52.05
2018-12-17T05:54:15.871Z,51.88
2018-12-17T05:56:41.929Z,52.39
2018-12-17T05:59:07.872Z,52.86
2018-12-17T06:01:33.831Z,52.30
2018-12-17T06:03:59.807Z,52.39
2018-12-17T06:06:25.768Z,52.69
2018-12-17T06:08:51.753Z,52.66
2018-12-17T06:11:17.713Z,52.51
2018-12-17T06:13:43.683Z,52.02
2018-12-17T06:16:09.668Z,51.88
2018-12-17T06:18:35.636Z,51.32
2018-12-17T06:21:01.596Z,51.41
2018-12-17T06:23:27.537Z,50.96
2018-12-17T06:25:53.551Z,52.32
2018-12-17T06:28:19.520Z,51.41
2018-12-17T06:30:45.476Z,51.35
2018-12-17T06:33:15.664Z,51.94
2018-12-17T06:35:39.437Z,51.83
2018-12-17T06:38:05.419Z,51.48
2018-12-17T06:40:31.382Z,51.84
2018-12-17T06:42:57.344Z,51.16
2018-12-17T06:45:23.296Z,51.97
2018-12-17T06:47:49.243Z,50.83
2018-12-17T06:50:15.173Z,51.00
2018-12-17T06:52:41.127Z,50.71
2018-12-17T06:55:07.093Z,50.95
2018-12-17T06:57:33.058Z,50.25
2018-12-17T06:59:59.021Z,50.33
2018-12-17T07:02:25.011Z,50.14
2018-12-17T07:04:50.964Z,50.36
2018-12-17T07:07:16.919Z,50.24
2018-12-17T07:09:42.852Z,50.38
2018-12-17T07:12:09.616Z,50.79
2018-12-17T07:14:36.608Z,50.35
2018-12-17T07:17:03.083Z,50.47
2018-12-17T07:19:29.054Z,50.63
2018-12-17T07:21:54.992Z,50.57
2018-12-17T07:24:20.948Z,50.56
2018-12-17T07:26:46.885Z,50.31
2018-12-17T07:29:12.857Z,49.80
2018-12-17T07:31:38.938Z,49.87
2018-12-17T07:34:04.896Z,49.65
2018-12-17T07:36:30.889Z,49.72
2018-12-17T07:38:56.828Z,50.44
2018-12-17T07:41:22.789Z,49.92
2018-12-17T07:43:48.760Z,49.36
2018-12-17T07:46:14.724Z,50.06
2018-12-17T07:48:40.665Z,49.23
2018-12-17T07:51:06.613Z,50.35
2018-12-17T07:53:32.582Z,50.17
2018-12-17T07:55:58.558Z,50.11
2018-12-17T07:58:24.504Z,50.25
2018-12-17T08:00:50.508Z,49.36
2018-12-17T08:03:16.461Z,49.98
2018-12-17T08:05:42.457Z,49.80
2018-12-17T08:08:08.412Z,50.51
2018-12-17T08:10:34.371Z,49.94
2018-12-17T08:13:00.317Z,49.37
2018-12-17T08:15:26.282Z,49.55
2018-12-17T08:17:52.223Z,49.05
2018-12-17T08:20:18.189Z,49.66
2018-12-17T08:22:44.219Z,49.90
2018-12-17T08:25:14.791Z,49.98
2018-12-17T08:27:42.642Z,50.13
2018-12-17T08:30:08.941Z,50.15
2018-12-17T08:32:34.921Z,50.31
2018-12-17T08:35:00.982Z,50.50
2018-12-17T08:37:27.024Z,50.46
2018-12-17T08:39:52.994Z,50.06
2018-12-17T08:42:18.961Z,50.07
2018-12-17T08:44:45.012Z,49.36
2018-12-17T08:47:11.011Z,49.03
2018-12-17T08:49:36.956Z,49.05
2018-12-17T08:52:02.908Z,48.97
2018-12-17T08:54:28.876Z,49.34
2018-12-17T08:56:54.837Z,49.61
2018-12-17T08:59:20.797Z,50.19
2018-12-17T09:01:46.757Z,50.79
2018-12-17T09:04:12.714Z,50.09
2018-12-17T09:06:38.727Z,50.29
2018-12-17T09:09:04.676Z,50.78
2018-12-17T09:11:30.664Z,50.53
2018-12-17T09:13:56.627Z,50.34
2018-12-17T09:16:23.712Z,49.70
2018-12-17T09:18:49.667Z,49.58
2018-12-17T09:21:15.609Z,51.02
2018-12-17T09:23:41.544Z,51.21
2018-12-17T09:26:07.512Z,50.62
2018-12-17T09:28:33.481Z,49.20
2018-12-17T09:30:59.441Z,50.34
2018-12-17T09:33:25.406Z,50.26
2018-12-17T09:35:51.378Z,49.37
2018-12-17T09:38:17.312Z,48.98
2018-12-17T09:40:43.262Z,49.75
2018-12-17T09:43:09.202Z,49.53
2018-12-17T09:45:35.178Z,49.45
2018-12-17T09:48:01.143Z,49.83
2018-12-17T09:50:27.117Z,48.55
2018-12-17T09:52:53.076Z,49.68
2018-12-17T09:55:19.044Z,49.97
2018-12-17T09:57:44.981Z,48.75
2018-12-17T10:00:10.941Z,49.10
2018-12-17T10:02:36.887Z,49.43
2018-12-17T10:05:02.913Z,49.32
2018-12-17T10:07:30.522Z,48.97
2018-12-17T10:09:56.670Z,49.55
2018-12-17T10:12:22.666Z,49.36
2018-12-17T10:14:48.623Z,48.77
2018-12-17T10:17:14.606Z,48.72
2018-12-17T10:19:40.566Z,49.28
2018-12-17T10:22:08.140Z,47.82
2018-12-17T10:24:34.276Z,49.40
2018-12-17T10:27:00.267Z,48.36
2018-12-17T10:29:26.265Z,47.75
2018-12-17T10:31:52.254Z,48.76
2018-12-17T10:34:20.246Z,49.01
2018-12-17T10:36:46.203Z,49.07
2018-12-17T10:39:12.213Z,49.29
2018-12-17T10:41:38.209Z,48.66
2018-12-17T10:44:04.153Z,49.44
2018-12-17T10:46:30.108Z,48.89
2018-12-17T10:48:56.075Z,49.34
2018-12-17T10:51:22.128Z,48.79
2018-12-17T10:53:48.091Z,49.09
2018-12-17T10:56:14.042Z,48.41
2018-12-17T10:58:39.971Z,50.28
2018-12-17T11:01:05.909Z,48.69
2018-12-17T11:03:31.882Z,48.87
2018-12-17T11:05:58.874Z,47.46
2018-12-17T11:08:24.817Z,47.79
2018-12-17T11:10:50.760Z,47.75
2018-12-17T11:13:16.855Z,48.95
2018-12-17T11:15:42.899Z,46.67
2018-12-17T11:18:08.857Z,47.43
2018-12-17T11:20:34.851Z,46.93
2018-12-17T11:23:00.823Z,47.57
2018-12-17T11:25:26.786Z,47.07
2018-12-17T11:27:52.739Z,46.69
2018-12-17T11:30:18.672Z,46.78
2018-12-17T11:32:44.623Z,46.74
2018-12-17T11:35:10.599Z,48.08
2018-12-17T11:37:36.567Z,46.44
2018-12-17T11:40:03.620Z,47.14
2018-12-17T11:42:29.577Z,47.94
2018-12-17T11:44:55.547Z,46.96
2018-12-17T11:47:21.531Z,48.33
2018-12-17T11:49:47.469Z,50.07
2018-12-17T11:52:13.433Z,48.60
2018-12-17T11:54:39.396Z,48.21
2018-12-17T11:57:05.395Z,48.25
2018-12-17T11:59:31.371Z,46.51
2018-12-17T12:01:57.339Z,46.99
2018-12-17T12:04:23.286Z,47.17
2018-12-17T12:06:49.249Z,46.45
2018-12-17T12:09:15.210Z,46.67
2018-12-17T12:11:41.168Z,46.50
2018-12-17T12:14:07.137Z,46.58
2018-12-17T12:16:33.092Z,46.76
2018-12-17T12:18:59.049Z,45.71
2018-12-17T12:21:24.989Z,45.76
2018-12-17T12:23:50.962Z,45.44
2018-12-17T12:26:17.038Z,45.62
2018-12-17T12:28:43.001Z,46.47
2018-12-17T12:31:08.988Z,45.91
2018-12-17T12:33:34.951Z,45.63
2018-12-17T12:36:00.907Z,46.28
2018-12-17T12:38:26.887Z,45.81
2018-12-17T12:40:52.824Z,45.52
2018-12-17T12:43:18.840Z,44.81
2018-12-17T12:45:44.780Z,46.18
2018-12-17T12:48:10.788Z,46.39
2018-12-17T12:50:36.774Z,46.01
2018-12-17T12:53:02.738Z,46.86
2018-12-17T12:55:28.691Z,47.02
2018-12-17T12:57:54.658Z,46.70
2018-12-17T13:00:20.600Z,45.63
2018-12-17T13:02:46.589Z,46.34
2018-12-17T13:05:12.568Z,47.00
2018-12-17T13:07:38.536Z,46.27
2018-12-17T13:10:04.503Z,47.49
2018-12-17T13:12:30.469Z,49.32
2018-12-17T13:14:56.447Z,48.42
2018-12-17T13:17:22.411Z,46.92
2018-12-17T13:19:48.368Z,46.10
2018-12-17T13:22:14.387Z,45.59
2018-12-17T13:24:40.355Z,44.99
2018-12-17T13:27:06.304Z,45.38
2018-12-17T13:29:32.271Z,45.82
2018-12-17T13:31:59.239Z,45.23
2018-12-17T13:34:25.191Z,44.94
2018-12-17T13:36:51.145Z,46.19
2018-12-17T13:39:17.693Z,44.79
2018-12-17T13:41:43.656Z,45.82
2018-12-17T13:44:09.640Z,46.64
2018-12-17T13:46:35.650Z,46.71
2018-12-17T13:49:01.603Z,44.91
2018-12-17T13:51:27.777Z,45.51
2018-12-17T13:53:53.745Z,47.96
2018-12-17T13:56:19.695Z,46.79
2018-12-17T13:58:45.748Z,48.22
2018-12-17T14:01:12.721Z,47.49
2018-12-17T14:03:39.273Z,47.95
2018-12-17T14:06:06.303Z,47.75
2018-12-17T14:08:32.281Z,47.85
2018-12-17T14:10:58.256Z,48.51
2018-12-17T14:13:24.221Z,47.81
2018-12-17T14:15:50.200Z,48.26
2018-12-17T14:18:16.154Z,48.13
2018-12-17T14:20:42.130Z,48.91
2018-12-17T14:23:08.124Z,48.35
2018-12-17T14:25:34.084Z,47.77
2018-12-17T14:28:00.111Z,47.22
2018-12-17T14:30:26.089Z,47.68
2018-12-17T14:32:52.076Z,48.13
2018-12-17T14:35:18.042Z,48.40
2018-12-17T14:37:44.038Z,48.39
2018-12-17T14:40:09.989Z,49.05
2018-12-17T14:42:35.959Z,49.01
2018-12-17T14:45:01.897Z,48.29
2018-12-17T14:47:27.867Z,47.88
2018-12-17T14:49:53.809Z,48.92
2018-12-17T14:52:19.782Z,48.86
2018-12-17T14:54:45.717Z,49.44
2018-12-17T14:57:11.672Z,49.38
2018-12-17T14:59:37.652Z,49.92
2018-12-17T15:02:03.766Z,49.89
2018-12-17T15:04:29.738Z,50.53
2018-12-17T15:06:55.703Z,50.38
2018-12-17T15:09:21.644Z,50.81
2018-12-17T15:11:47.774Z,50.56
2018-12-17T15:14:13.816Z,50.45
2018-12-17T15:16:39.768Z,50.49
2018-12-17T15:19:05.723Z,50.63
2018-12-17T15:21:32.368Z,50.03
2018-12-17T15:23:58.326Z,50.85
2018-12-17T15:26:24.495Z,51.19
2018-12-17T15:28:50.537Z,51.03
2018-12-17T15:31:16.507Z,50.44
2018-12-17T15:33:42.474Z,51.31
2018-12-17T15:36:08.428Z,51.68
2018-12-17T15:38:34.394Z,51.87
2018-12-17T15:41:00.395Z,50.81
2018-12-17T15:43:26.421Z,49.68
2018-12-17T15:45:52.368Z,49.99
2018-12-17T15:48:18.328Z,49.17
2018-12-17T15:50:44.265Z,48.71
2018-12-17T15:53:10.205Z,49.33
2018-12-17T15:55:36.164Z,49.27
2018-12-17T15:58:02.125Z,49.68
2018-12-17T16:00:28.090Z,49.94
2018-12-17T16:02:54.043Z,49.37
2018-12-17T16:05:20.003Z,48.62
2018-12-17T16:07:46.063Z,48.06
2018-12-17T16:10:12.029Z,48.98
2018-12-17T16:12:38.000Z,49.94
2018-12-17T16:15:03.955Z,50.73
2018-12-17T16:17:30.037Z,50.90
2018-12-17T16:19:55.987Z,51.41
2018-12-17T16:22:21.960Z,50.78
2018-12-17T16:24:47.923Z,50.17
2018-12-17T16:27:19.218Z,51.06
2018-12-17T16:29:42.889Z,50.14
2018-12-17T16:32:08.836Z,50.44
2018-12-17T16:34:34.802Z,49.86
2018-12-17T16:37:00.754Z,49.53
2018-12-17T16:39:26.690Z,49.21
2018-12-17T16:41:52.676Z,49.08
2018-12-17T16:44:18.623Z,50.10
2018-12-17T16:46:44.610Z,49.63
2018-12-17T16:49:10.562Z,49.31
2018-12-17T16:51:36.525Z,49.86
2018-12-17T16:54:02.552Z,49.69
2018-12-17T16:56:28.504Z,49.10
2018-12-17T16:58:55.116Z,50.65
2018-12-17T17:01:21.253Z,49.91
2018-12-17T17:03:47.223Z,51.77
2018-12-17T17:06:13.200Z,50.56
2018-12-17T17:08:39.156Z,50.79
2018-12-17T17:11:05.110Z,49.79
2018-12-17T17:13:31.090Z,49.23
2018-12-17T17:15:57.082Z,50.01
2018-12-17T17:18:23.068Z,49.12
2018-12-17T17:20:49.111Z,48.96
2018-12-17T17:23:15.182Z,50.18
2018-12-17T17:25:42.201Z,49.50
2018-12-17T17:28:08.271Z,49.28
2018-12-17T17:30:34.229Z,48.74
2018-12-17T17:33:00.192Z,50.38
2018-12-17T17:35:26.934Z,49.74
2018-12-17T17:37:52.912Z,50.47
2018-12-17T17:40:19.117Z,50.24
2018-12-17T17:42:45.091Z,49.78
2018-12-17T17:45:11.071Z,50.58
2018-12-17T17:47:37.053Z,50.58
2018-12-17T17:50:04.041Z,49.83
2018-12-17T17:52:31.038Z,50.53
2018-12-17T17:54:57.000Z,50.94
2018-12-17T17:57:23.011Z,51.67
2018-12-17T17:59:49.529Z,51.50
2018-12-17T18:02:18.677Z,52.46
2018-12-17T18:04:43.495Z,50.73
2018-12-17T18:07:09.466Z,52.14
2018-12-17T18:09:35.404Z,50.53
2018-12-17T18:12:01.386Z,51.76
2018-12-17T18:14:27.366Z,51.44
2018-12-17T18:16:53.405Z,51.04
2018-12-17T18:19:19.399Z,52.03
2018-12-17T18:21:46.219Z,52.10
2018-12-17T18:24:12.237Z,52.09
2018-12-17T18:26:38.184Z,50.72
2018-12-17T18:29:04.161Z,50.97
2018-12-17T18:31:30.134Z,51.42
2018-12-17T18:33:56.079Z,49.66
2018-12-17T18:36:22.020Z,51.95
2018-12-17T18:38:48.003Z,50.46
2018-12-17T18:41:13.961Z,51.20
2018-12-17T18:43:39.920Z,52.16
2018-12-17T18:46:05.863Z,51.86
2018-12-17T18:48:31.836Z,51.99
2018-12-17T18:50:57.849Z,52.02
2018-12-17T18:53:23.812Z,51.00
2018-12-17T18:55:50.816Z,50.49
2018-12-17T18:58:16.778Z,50.48
2018-12-17T19:00:42.721Z,49.93
2018-12-17T19:03:08.677Z,49.64
2018-12-17T19:05:34.636Z,50.17
2018-12-17T19:08:00.573Z,50.17
2018-12-17T19:10:26.528Z,50.16
2018-12-17T19:12:52.503Z,51.10
2018-12-17T19:15:18.465Z,50.83
2018-12-17T19:17:44.403Z,51.02
2018-12-17T19:20:10.349Z,50.39
2018-12-17T19:22:36.335Z,50.29
2018-12-17T19:25:02.341Z,50.90
2018-12-17T19:27:28.311Z,51.19
2018-12-17T19:29:54.307Z,50.66
2018-12-17T19:32:20.293Z,51.12
2018-12-17T19:34:46.263Z,50.86
2018-12-17T19:37:12.455Z,50.03
2018-12-17T19:39:38.400Z,51.97
2018-12-17T19:42:04.350Z,51.40
2018-12-17T19:44:30.332Z,52.18
2018-12-17T19:46:56.293Z,51.63
2018-12-17T19:49:22.286Z,51.36
2018-12-17T19:51:48.305Z,51.69
2018-12-17T19:54:14.301Z,51.37
2018-12-17T19:56:40.638Z,51.34
2018-12-17T19:59:06.637Z,51.37
2018-12-17T20:01:32.595Z,51.72
2018-12-17T20:03:58.553Z,51.86
2018-12-17T20:06:24.998Z,52.64
2018-12-17T20:08:51.204Z,51.99
2018-12-17T20:11:17.175Z,51.40
2018-12-17T20:13:43.117Z,51.97
2018-12-17T20:16:10.149Z,51.39
2018-12-17T20:18:36.172Z,51.42
2018-12-17T20:21:02.320Z,51.77
2018-12-17T20:23:28.294Z,52.15
2018-12-17T20:25:54.268Z,51.24
2018-12-17T20:28:20.260Z,51.09
2018-12-17T20:30:47.489Z,50.69
2018-12-17T20:33:13.546Z,51.51
2018-12-17T20:35:39.577Z,50.60
2018-12-17T20:38:05.996Z,50.69
2018-12-17T20:40:31.986Z,51.13
2018-12-17T20:42:59.148Z,50.78
2018-12-17T20:45:25.085Z,50.56
2018-12-17T20:47:51.059Z,50.82
2018-12-17T20:50:17.015Z,51.28
2018-12-17T20:52:43.292Z,50.87
2018-12-17T20:55:09.361Z,51.32
2018-12-17T20:57:37.502Z,50.89
2018-12-17T21:00:03.555Z,51.33
2018-12-17T21:02:29.534Z,51.21
2018-12-17T21:04:55.576Z,50.47
2018-12-17T21:07:21.612Z,51.10
2018-12-17T21:09:47.579Z,50.21
2018-12-17T21:12:13.548Z,50.89
2018-12-17T21:14:39.592Z,51.05
2018-12-17T21:19:37.352Z,51.69
2018-12-17T21:22:03.438Z,52.28
2018-12-17T21:24:29.494Z,52.65
2018-12-17T21:26:55.546Z,52.35
2018-12-17T21:29:21.532Z,52.00
2018-12-17T21:31:47.656Z,51.61
2018-12-17T21:34:13.645Z,51.44
2018-12-17T21:36:39.650Z,52.01
2018-12-17T21:39:05.625Z,52.52
2018-12-17T21:41:31.610Z,51.73
2018-12-17T21:43:57.565Z,51.09
2018-12-17T21:46:23.567Z,50.85
2018-12-17T21:48:49.590Z,51.28
2018-12-17T21:51:15.618Z,51.85
2018-12-17T21:53:41.592Z,51.49
2018-12-17T21:56:07.552Z,51.72
2018-12-17T21:58:33.495Z,52.34
2018-12-17T22:00:59.504Z,52.75
2018-12-17T22:03:25.496Z,51.88
2018-12-17T22:05:51.444Z,52.25
2018-12-17T22:08:17.390Z,52.02
2018-12-17T22:10:43.341Z,52.25
2018-12-17T22:13:09.317Z,52.32
2018-12-17T22:15:35.330Z,52.96
2018-12-17T22:18:01.294Z,53.11
2018-12-17T22:20:27.261Z,51.97
2018-12-17T22:22:53.222Z,52.01
2018-12-17T22:25:19.179Z,52.30
2018-12-17T22:27:45.149Z,51.83
2018-12-17T22:30:11.124Z,51.77
2018-12-17T22:32:37.121Z,51.93
2018-12-17T22:35:03.062Z,52.33
2018-12-17T22:37:29.026Z,52.30
2018-12-17T22:39:54.992Z,51.64
2018-12-17T22:42:20.977Z,51.09
2018-12-17T22:44:46.917Z,51.57
2018-12-17T22:47:12.892Z,50.80
2018-12-17T22:49:38.939Z,50.44
2018-12-17T22:52:04.995Z,50.89
2018-12-17T22:54:30.951Z,52.08
2018-12-17T22:56:56.916Z,52.50
2018-12-17T22:59:22.893Z,51.53
2018-12-17T23:01:48.856Z,51.69
2018-12-17T23:04:14.825Z,51.46
2018-12-17T23:06:40.838Z,51.87
2018-12-17T23:09:06.852Z,53.41
2018-12-17T23:11:32.837Z,53.23
2018-12-17T23:13:58.796Z,53.64
2018-12-17T23:16:24.840Z,53.16
2018-12-17T23:18:50.814Z,51.89
2018-12-17T23:21:16.756Z,52.39
2018-12-17T23:23:42.732Z,51.79
2018-12-17T23:26:08.701Z,52.15
2018-12-17T23:28:34.704Z,51.79
2018-12-17T23:31:00.654Z,51.16
2018-12-17T23:33:32.670Z,50.90
2018-12-17T23:35:54.591Z,51.80
2018-12-17T23:38:20.565Z,51.97
2018-12-17T23:40:46.544Z,52.61
2018-12-17T23:43:12.498Z,52.27
2018-12-17T23:45:38.464Z,53.04
2018-12-17T23:48:04.408Z,52.88
2018-12-17T23:50:30.370Z,52.84
2018-12-17T23:52:56.378Z,53.07
2018-12-17T23:55:22.399Z,54.36
2018-12-17T23:57:48.372Z,53.23
